Time;durP1;ratioP1;P1;durP2;ratioP2;P2;SDS_P1;SDS_P2;PMS_P1;PMS_P2;Temp;Humidity;BMP_temperature;BMP_pressure;BME280_temperature;BME280_humidity;BME280_pressure;Samples;Min_cycle;Max_cycle;Signal;HPM_P1;HPM_P2
2023/08/20 00:01:45;;;;;;;12.18;8.82;;;;;;;21.72;82.46;99888.50;5026263;28;20517;-45
2023/08/20 00:04:12;;;;;;;14.52;9.27;;;;;;;21.88;82.78;99906.69;5028293;28;20053;-46
2023/08/20 00:06:39;;;;;;;13.40;9.60;;;;;;;21.78;83.07;99890.66;5029801;28;20041;-44
2023/08/20 00:09:07;;;;;;;14.18;9.05;;;;;;;21.81;83.13;99897.56;5009003;28;20053;-46
2023/08/20 00:11:33;;;;;;;13.88;9.10;;;;;;;21.82;83.42;99900.09;5022650;28;20465;-45
2023/08/20 00:13:59;;;;;;;13.48;9.02;;;;;;;21.79;83.74;99896.81;5026864;28;20056;-45
2023/08/20 00:16:25;;;;;;;14.25;9.48;;;;;;;21.80;83.87;99895.84;5028574;28;20045;-42
2023/08/20 00:18:51;;;;;;;15.00;9.43;;;;;;;21.80;83.81;99890.56;5011816;28;20889;-43
2023/08/20 00:21:17;;;;;;;16.98;9.13;;;;;;;21.76;83.58;99887.31;4993944;28;20045;-43
2023/08/20 00:23:43;;;;;;;16.48;10.15;;;;;;;21.78;83.48;99889.81;5026364;28;20052;-44
2023/08/20 00:26:10;;;;;;;14.73;10.10;;;;;;;21.77;83.47;99883.69;5029752;28;20052;-44
2023/08/20 00:28:38;;;;;;;14.77;8.98;;;;;;;21.76;83.58;99881.19;5027756;28;20041;-46
2023/08/20 00:31:04;;;;;;;13.63;9.05;;;;;;;21.47;83.66;99827.84;5027927;28;20067;-50
2023/08/20 00:33:31;;;;;;;18.30;10.68;;;;;;;21.56;83.68;99841.19;5027203;28;20563;-48
2023/08/20 00:35:58;;;;;;;14.07;9.95;;;;;;;21.65;84.17;99860.00;5020506;28;20505;-48
2023/08/20 00:38:24;;;;;;;15.63;9.18;;;;;;;21.64;84.59;99868.88;5011911;28;20088;-47
2023/08/20 00:40:50;;;;;;;13.50;10.07;;;;;;;21.59;84.97;99869.25;5029155;28;20047;-43
2023/08/20 00:43:16;;;;;;;15.30;9.32;;;;;;;21.44;85.59;99846.59;5020409;28;20064;-44
2023/08/20 00:45:42;;;;;;;17.50;9.63;;;;;;;21.53;85.86;99862.63;5011235;28;20132;-48
2023/08/20 00:48:08;;;;;;;15.18;9.60;;;;;;;21.48;86.24;99859.47;5008290;28;20038;-48
2023/08/20 00:50:34;;;;;;;13.60;9.38;;;;;;;21.46;86.44;99852.59;5024592;28;20048;-46
2023/08/20 00:53:02;;;;;;;14.50;9.80;;;;;;;21.43;87.01;99866.09;5008434;28;20049;-45
2023/08/20 00:55:28;;;;;;;15.57;9.27;;;;;;;21.37;87.49;99867.38;5024815;28;20125;-45
2023/08/20 00:57:54;;;;;;;13.23;9.70;;;;;;;21.34;87.87;99848.28;5023339;28;20501;-44
2023/08/20 01:00:21;;;;;;;15.57;9.20;;;;;;;21.31;88.63;99853.78;5028913;28;20092;-44
2023/08/20 01:02:46;;;;;;;16.23;10.40;;;;;;;21.32;89.27;99866.03;4994942;28;20041;-45
2023/08/20 01:05:12;;;;;;;11.23;9.63;;;;;;;21.33;89.50;99862.44;5007726;28;20073;-48
2023/08/20 01:07:58;;;;;;;17.50;9.68;;;;;;;21.35;89.75;99861.38;5023121;28;20048;-50
2023/08/20 01:10:36;;;;;;;13.48;10.13;;;;;;;21.35;89.79;99842.88;5011183;28;20132;-47
2023/08/20 01:13:04;;;;;;;17.75;9.93;;;;;;;21.20;89.96;99822.84;5023434;28;20045;-50
2023/08/20 01:15:30;;;;;;;16.08;9.80;;;;;;;21.37;90.23;99837.44;5027750;28;20041;-45
2023/08/20 01:17:55;;;;;;;16.15;10.00;;;;;;;21.35;90.16;99832.28;5004881;28;20077;-47
2023/08/20 01:20:25;;;;;;;17.52;9.90;;;;;;;21.44;90.28;99834.22;5021047;28;20136;-45
2023/08/20 01:22:58;;;;;;;14.88;9.43;;;;;;;21.49;90.02;99847.09;5026742;28;20195;-46
2023/08/20 01:25:33;;;;;;;18.30;10.27;;;;;;;21.51;90.12;99850.47;5026940;28;20504;-45
2023/08/20 01:28:19;;;;;;;24.35;10.95;;;;;;;21.53;90.03;99853.84;5002008;28;20046;-49
2023/08/20 01:30:44;;;;;;;15.32;9.80;;;;;;;21.55;89.66;99849.28;5025153;28;20041;-49
2023/08/20 01:33:12;;;;;;;15.07;10.15;;;;;;;21.57;89.75;99842.03;5009852;28;20047;-47
2023/08/20 01:35:38;;;;;;;16.60;10.20;;;;;;;21.60;89.76;99841.81;5026969;28;20041;-49
2023/08/20 01:38:15;;;;;;;15.02;9.52;;;;;;;21.64;89.73;99847.72;4995173;28;20421;-47
2023/08/20 01:40:41;;;;;;;17.13;10.10;;;;;;;21.48;89.58;99817.16;5027307;28;20152;-47
2023/08/20 01:43:07;;;;;;;15.57;10.00;;;;;;;21.68;89.58;99857.94;5019815;28;20561;-44
2023/08/20 01:45:33;;;;;;;21.52;11.20;;;;;;;21.70;89.77;99871.06;5027362;28;20042;-48
2023/08/20 01:47:59;;;;;;;16.13;10.27;;;;;;;21.68;90.12;99867.69;5013089;28;20128;-47
2023/08/20 01:50:25;;;;;;;17.17;10.98;;;;;;;21.67;90.82;99860.72;5010688;28;20534;-48
2023/08/20 01:52:51;;;;;;;24.33;11.55;;;;;;;21.63;91.45;99854.81;5024927;28;20046;-47
2023/08/20 01:55:17;;;;;;;19.08;10.98;;;;;;;21.45;92.48;99843.84;5023142;28;20144;-47
2023/08/20 01:57:45;;;;;;;16.88;11.02;;;;;;;21.50;93.76;99854.09;5021325;28;20044;-46
2023/08/20 02:00:12;;;;;;;19.67;12.00;;;;;;;21.41;95.59;99854.75;5022455;28;20069;-49
2023/08/20 02:02:42;;;;;;;23.75;12.88;;;;;;;21.28;97.88;99865.44;5027696;28;20048;-46
2023/08/20 02:05:10;;;;;;;21.15;12.82;;;;;;;21.19;100.00;99858.22;5010259;28;20049;-46
2023/08/20 02:07:39;;;;;;;22.55;13.63;;;;;;;21.15;100.00;99854.09;5023222;28;20048;-49
2023/08/20 02:10:06;;;;;;;19.35;12.27;;;;;;;21.08;100.00;99847.56;5010301;28;20122;-45
2023/08/20 02:12:34;;;;;;;18.38;11.43;;;;;;;21.02;100.00;99840.09;5024986;28;20068;-48
2023/08/20 02:15:03;;;;;;;17.88;12.68;;;;;;;20.98;100.00;99843.94;5026503;28;20044;-47
2023/08/20 02:17:35;;;;;;;19.48;12.75;;;;;;;20.99;100.00;99856.16;5006152;28;20132;-47
2023/08/20 02:20:04;;;;;;;23.00;12.07;;;;;;;20.98;100.00;99841.28;5026714;28;20053;-47
2023/08/20 02:22:31;;;;;;;21.77;12.75;;;;;;;20.98;100.00;99846.56;5026524;28;20041;-47
2023/08/20 02:24:57;;;;;;;19.92;12.98;;;;;;;21.02;100.00;99848.88;5026542;28;20044;-47
2023/08/20 02:27:23;;;;;;;16.80;11.35;;;;;;;20.86;100.00;99826.31;5025833;28;20501;-45
2023/08/20 02:29:49;;;;;;;20.88;12.32;;;;;;;21.00;100.00;99847.28;5025559;28;20045;-50
2023/08/20 02:32:15;;;;;;;14.98;10.57;;;;;;;20.98;100.00;99834.19;5026528;28;20051;-48
2023/08/20 02:34:41;;;;;;;19.55;11.70;;;;;;;21.00;100.00;99842.00;5026359;28;20052;-48
2023/08/20 02:37:07;;;;;;;18.50;11.50;;;;;;;21.02;100.00;99853.31;5051086;28;20041;-44
2023/08/20 02:39:34;;;;;;;16.67;11.40;;;;;;;21.05;100.00;99847.78;5050383;28;20536;-47
2023/08/20 02:42:02;;;;;;;19.23;12.23;;;;;;;21.09;100.00;99844.78;5002704;28;20107;-44
2023/08/20 02:44:28;;;;;;;23.75;12.25;;;;;;;21.07;100.00;99836.16;5018409;28;20468;-47
2023/08/20 02:46:55;;;;;;;16.88;12.15;;;;;;;21.00;100.00;99821.69;5025735;28;20042;-45
2023/08/20 02:49:21;;;;;;;21.10;11.23;;;;;;;21.13;100.00;99842.78;5009800;28;20041;-45
2023/08/20 02:51:47;;;;;;;19.52;11.32;;;;;;;21.06;100.00;99820.38;5025910;28;20087;-47
2023/08/20 02:54:13;;;;;;;18.67;11.05;;;;;;;21.18;100.00;99831.88;5025554;28;20432;-46
2023/08/20 02:56:40;;;;;;;18.30;12.25;;;;;;;21.40;100.00;99851.31;5009537;28;20617;-49
2023/08/20 02:59:06;;;;;;;17.77;11.57;;;;;;;21.52;100.00;99862.72;5054543;28;20048;-49
2023/08/20 03:01:32;;;;;;;17.70;13.27;;;;;;;21.64;100.00;99869.72;5030223;28;20072;-49
2023/08/20 03:03:58;;;;;;;17.77;12.85;;;;;;;21.71;100.00;99880.69;5024651;28;20085;-47
2023/08/20 03:06:24;;;;;;;20.10;12.50;;;;;;;21.77;100.00;99881.03;5030283;28;20045;-47
2023/08/20 03:08:50;;;;;;;18.55;12.30;;;;;;;21.83;100.00;99888.50;5029690;28;20050;-46
2023/08/20 03:11:16;;;;;;;18.00;12.15;;;;;;;21.87;100.00;99894.44;5031171;28;20532;-47
2023/08/20 03:13:42;;;;;;;18.42;12.02;;;;;;;21.82;100.00;99880.72;5026715;28;20033;-46
2023/08/20 03:16:08;;;;;;;20.42;13.32;;;;;;;21.91;100.00;99890.56;5031352;28;20033;-47
2023/08/20 03:18:34;;;;;;;22.67;13.43;;;;;;;21.93;100.00;99896.56;5029800;28;20116;-45
2023/08/20 03:21:00;;;;;;;26.35;13.60;;;;;;;21.74;100.00;99868.06;5029965;28;20045;-46
2023/08/20 03:23:26;;;;;;;20.98;14.10;;;;;;;21.95;100.00;99900.84;5026521;28;20049;-47
2023/08/20 03:25:52;;;;;;;22.10;13.82;;;;;;;21.92;100.00;99901.06;5029306;28;20077;-45
2023/08/20 03:28:19;;;;;;;20.00;13.57;;;;;;;21.82;100.00;99883.34;5009484;28;20129;-45
2023/08/20 03:30:45;;;;;;;23.55;14.85;;;;;;;21.98;100.00;99902.41;5053217;28;20091;-47
2023/08/20 03:33:16;;;;;;;22.25;13.80;;;;;;;21.98;100.00;99913.81;5012209;28;20072;-46
2023/08/20 03:35:45;;;;;;;23.38;14.57;;;;;;;21.96;100.00;99910.47;5029154;28;20068;-46
2023/08/20 03:38:11;;;;;;;27.17;14.80;;;;;;;21.88;99.44;99902.22;5007660;28;20045;-46
2023/08/20 03:40:37;;;;;;;24.23;14.55;;;;;;;21.89;99.17;99913.66;5026776;28;20068;-48
2023/08/20 03:43:04;;;;;;;27.90;14.77;;;;;;;21.84;99.11;99921.97;5029357;28;20082;-44
2023/08/20 03:45:30;;;;;;;24.60;14.98;;;;;;;21.73;98.95;99915.81;5028908;28;20052;-48
2023/08/20 03:47:57;;;;;;;26.52;15.85;;;;;;;21.64;99.56;99921.81;5012536;28;20159;-47
2023/08/20 03:50:23;;;;;;;22.85;14.88;;;;;;;21.54;100.00;99919.03;5029404;28;20041;-47
2023/08/20 03:52:49;;;;;;;26.02;16.27;;;;;;;21.45;100.00;99899.41;5029116;28;20127;-44
2023/08/20 03:55:16;;;;;;;24.73;15.38;;;;;;;21.37;100.00;99891.19;5023562;28;20131;-46
2023/08/20 03:57:42;;;;;;;24.85;15.98;;;;;;;21.39;100.00;99885.78;5029765;28;20124;-44
2023/08/20 04:00:12;;;;;;;23.75;15.30;;;;;;;21.36;100.00;99860.41;5005375;28;20037;-47
2023/08/20 04:02:42;;;;;;;26.25;15.75;;;;;;;21.37;100.00;99850.66;5030252;28;20048;-46
2023/08/20 04:05:08;;;;;;;24.92;15.60;;;;;;;21.35;100.00;99842.88;5024225;28;20057;-47
2023/08/20 04:07:36;;;;;;;25.48;16.75;;;;;;;21.35;100.00;99820.88;5050818;28;20050;-47
2023/08/20 04:10:02;;;;;;;22.85;15.43;;;;;;;21.33;100.00;99801.63;5027906;28;20041;-47
2023/08/20 04:12:32;;;;;;;26.13;17.35;;;;;;;21.27;100.00;99770.34;5029045;28;20045;-47
2023/08/20 04:14:58;;;;;;;25.73;18.05;;;;;;;21.23;100.00;99763.63;5021286;28;20496;-45
2023/08/20 04:17:25;;;;;;;29.60;17.75;;;;;;;21.07;100.00;99759.47;5030083;28;20468;-46
2023/08/20 04:19:52;;;;;;;30.30;18.20;;;;;;;21.14;100.00;99767.81;5012147;28;20041;-46
2023/08/20 04:22:18;;;;;;;25.70;17.15;;;;;;;21.04;100.00;99758.88;5029974;28;20037;-46
2023/08/20 04:24:44;;;;;;;32.38;18.48;;;;;;;20.80;100.00;99758.06;5049198;28;20049;-46
2023/08/20 04:27:10;;;;;;;36.30;19.73;;;;;;;20.75;100.00;99754.94;5008630;28;20117;-47
2023/08/20 04:29:39;;;;;;;28.60;18.60;;;;;;;20.86;100.00;99784.03;5012179;28;20049;-44
2023/08/20 04:32:05;;;;;;;26.20;18.33;;;;;;;20.87;100.00;99791.03;5011481;28;20044;-48
2023/08/20 04:34:32;;;;;;;33.63;19.60;;;;;;;20.83;100.00;99797.50;5028428;28;20045;-46
2023/08/20 04:36:58;;;;;;;24.90;18.13;;;;;;;20.75;100.00;99789.28;5028282;28;20057;-47
2023/08/20 04:39:24;;;;;;;31.20;18.95;;;;;;;20.62;100.00;99774.31;5012098;28;20049;-46
2023/08/20 04:41:57;;;;;;;32.85;18.48;;;;;;;20.90;100.00;99806.63;5027604;28;20039;-47
2023/08/20 04:44:23;;;;;;;29.38;19.50;;;;;;;20.96;100.00;99807.03;5026567;28;20094;-45
2023/08/20 04:46:50;;;;;;;28.75;18.92;;;;;;;20.94;100.00;99802.78;5027205;28;20033;-46
2023/08/20 04:49:17;;;;;;;28.17;17.98;;;;;;;21.03;100.00;99818.00;5028252;28;20132;-47
2023/08/20 04:51:43;;;;;;;24.52;17.80;;;;;;;21.09;100.00;99825.47;5027238;28;20131;-46
2023/08/20 04:54:08;;;;;;;27.25;18.35;;;;;;;21.17;100.00;99820.47;5005482;28;20037;-48
2023/08/20 04:56:34;;;;;;;28.73;18.15;;;;;;;21.23;100.00;99819.16;5027734;28;20051;-46
2023/08/20 04:59:00;;;;;;;18.95;14.15;;;;;;;20.90;100.00;99778.41;5027672;28;20103;-45
2023/08/20 05:01:46;;;;;;;20.65;14.70;;;;;;;21.09;100.00;99809.59;5027154;28;20059;-46
2023/08/20 05:04:12;;;;;;;23.73;15.35;;;;;;;21.05;100.00;99806.31;5011436;28;20057;-46
2023/08/20 05:06:38;;;;;;;20.27;14.77;;;;;;;21.17;100.00;99814.31;5027622;28;20037;-46
2023/08/20 05:09:04;;;;;;;23.17;15.07;;;;;;;21.23;100.00;99805.94;5022876;28;20128;-49
2023/08/20 05:11:32;;;;;;;22.23;14.45;;;;;;;21.29;100.00;99802.81;5032816;28;20048;-46
2023/08/20 05:13:58;;;;;;;22.30;14.80;;;;;;;21.46;100.00;99800.53;5043138;28;20041;-45
2023/08/20 05:16:25;;;;;;;23.30;14.85;;;;;;;21.72;100.00;99813.56;4968124;28;20049;-50
2023/08/20 05:18:50;;;;;;;21.42;14.13;;;;;;;21.96;100.00;99801.91;5026368;28;20080;-45
2023/08/20 05:21:17;;;;;;;17.85;12.95;;;;;;;22.12;98.60;99803.34;5028214;28;20049;-45
2023/08/20 05:23:43;;;;;;;17.23;13.10;;;;;;;22.10;97.16;99794.66;5027177;28;20120;-46
2023/08/20 05:26:10;;;;;;;18.73;12.07;;;;;;;22.16;96.26;99791.53;5028751;28;20495;-50
2023/08/20 05:28:35;;;;;;;17.10;11.80;;;;;;;22.21;94.43;99803.44;5024936;28;20069;-45
2023/08/20 05:31:01;;;;;;;15.55;11.43;;;;;;;22.22;92.96;99794.53;5023339;28;20349;-46
2023/08/20 05:33:27;;;;;;;13.18;10.05;;;;;;;22.24;91.08;99797.06;5028015;28;20095;-45
2023/08/20 05:35:55;;;;;;;14.43;10.90;;;;;;;22.23;89.75;99790.94;5038028;28;20055;-46
2023/08/20 05:38:22;;;;;;;13.93;10.60;;;;;;;22.38;88.98;99802.09;5025547;28;20073;-47
2023/08/20 05:40:50;;;;;;;12.13;9.25;;;;;;;22.37;88.45;99780.03;5022394;28;20088;-46
2023/08/20 05:43:16;;;;;;;10.73;9.02;;;;;;;22.35;87.73;99765.22;5028282;28;20053;-48
2023/08/20 05:45:43;;;;;;;15.10;10.57;;;;;;;22.54;87.47;99778.66;4994901;28;20416;-44
2023/08/20 05:48:11;;;;;;;;;;;;;;;22.65;86.56;99778.63;5027501;28;20502;-47
2023/08/20 05:50:37;;;;;;;11.63;8.73;;;;;;;22.54;85.55;99768.06;5025014;28;19928;-49
2023/08/20 05:53:05;;;;;;;13.38;9.45;;;;;;;22.56;83.98;99767.94;5020034;28;20041;-49
2023/08/20 05:55:32;;;;;;;11.00;8.43;;;;;;;22.78;83.54;99781.97;5008129;28;20061;-47
2023/08/20 05:57:59;;;;;;;12.85;8.60;;;;;;;22.85;82.09;99784.09;5038888;28;20128;-48
2023/08/20 06:00:26;;;;;;;16.27;9.10;;;;;;;22.87;81.63;99775.06;5020569;28;20628;-48
2023/08/20 06:02:53;;;;;;;12.73;8.98;;;;;;;22.99;81.42;99774.03;5025945;28;20053;-51
2023/08/20 06:05:19;;;;;;;15.02;9.45;;;;;;;23.21;80.56;99770.41;5023595;28;20429;-47
2023/08/20 06:07:45;;;;;;;11.20;8.88;;;;;;;23.44;79.46;99766.63;5025762;28;20048;-50
2023/08/20 06:10:11;;;;;;;10.25;8.13;;;;;;;23.71;77.94;99759.94;5019084;28;20041;-47
2023/08/20 06:12:38;;;;;;;10.13;7.45;;;;;;;23.62;76.30;99740.31;5023793;28;20048;-45
2023/08/20 06:15:05;;;;;;;10.20;7.03;;;;;;;23.93;75.20;99760.53;5007292;28;20128;-45
2023/08/20 06:17:33;;;;;;;9.40;7.72;;;;;;;24.29;73.85;99734.34;5019367;28;20531;-49
2023/08/20 06:19:59;;;;;;;7.85;6.47;;;;;;;24.63;72.04;99745.44;5025970;28;20044;-47
2023/08/20 06:22:25;;;;;;;10.05;7.85;;;;;;;24.76;70.75;99765.44;5030449;28;20048;-49
2023/08/20 06:24:51;;;;;;;10.05;7.95;;;;;;;25.16;70.10;99764.44;5021975;28;20500;-49
2023/08/20 06:27:16;;;;;;;8.82;6.07;;;;;;;25.72;66.72;99767.09;5005996;28;20053;-53
2023/08/20 06:29:42;;;;;;;10.40;6.45;;;;;;;26.27;64.77;99759.94;5004213;28;20132;-47
2023/08/20 06:32:09;;;;;;;11.68;6.32;;;;;;;26.73;62.87;99750.88;5022563;28;20075;-51
2023/08/20 06:34:36;;;;;;;12.07;7.38;;;;;;;27.01;61.36;99746.28;5026374;28;20045;-46
2023/08/20 06:37:03;;;;;;;9.73;6.28;;;;;;;26.84;61.21;99752.47;5002136;28;20103;-49
2023/08/20 06:39:29;;;;;;;8.70;6.35;;;;;;;26.55;61.53;99750.88;5025663;28;20492;-51
2023/08/20 06:41:55;;;;;;;10.15;6.97;;;;;;;26.64;61.11;99721.63;5025460;28;20099;-52
2023/08/20 06:44:22;;;;;;;8.95;6.93;;;;;;;27.13;60.21;99753.03;5022656;28;20070;-49
2023/08/20 06:46:48;;;;;;;8.65;6.03;;;;;;;27.51;58.68;99718.91;5022568;28;20091;-50
2023/08/20 06:49:14;;;;;;;7.85;6.18;;;;;;;28.12;56.92;99740.03;5030783;28;20124;-49
2023/08/20 06:51:40;;;;;;;6.30;5.18;;;;;;;28.62;54.97;99740.81;5011648;28;20129;-51
2023/08/20 06:54:07;;;;;;;7.45;5.78;;;;;;;28.56;54.55;99732.59;5015271;28;20052;-51
2023/08/20 06:56:33;;;;;;;8.88;6.10;;;;;;;28.52;54.40;99736.59;5028663;28;20042;-49
2023/08/20 06:59:00;;;;;;;7.70;5.40;;;;;;;28.73;53.50;99731.63;5022618;28;20982;-51
2023/08/20 07:01:26;;;;;;;6.50;5.35;;;;;;;28.90;53.01;99730.59;5042770;28;20538;-49
2023/08/20 07:03:52;;;;;;;7.82;6.03;;;;;;;29.21;51.92;99713.81;5017486;28;20069;-50
2023/08/20 07:06:18;;;;;;;8.63;6.07;;;;;;;29.44;51.36;99738.91;5027531;28;20052;-50
2023/08/20 07:08:44;;;;;;;9.32;6.00;;;;;;;30.05;50.83;99740.00;5006936;28;20034;-48
2023/08/20 07:11:10;;;;;;;9.00;6.32;;;;;;;30.68;48.98;99737.94;5024836;28;20043;-50
2023/08/20 07:13:36;;;;;;;7.25;6.00;;;;;;;31.29;47.47;99701.13;5035171;28;20056;-50
2023/08/20 07:16:03;;;;;;;8.35;6.18;;;;;;;32.49;46.10;99717.72;5031555;28;20095;-51
2023/08/20 07:18:29;;;;;;;9.93;6.38;;;;;;;33.06;44.67;99726.50;5026687;28;20037;-52
2023/08/20 07:20:55;;;;;;;8.05;5.68;;;;;;;34.19;42.84;99723.41;5023176;28;20045;-46
2023/08/20 07:23:22;;;;;;;9.20;6.13;;;;;;;34.86;41.22;99725.16;5004278;28;20394;-53
2023/08/20 07:25:48;;;;;;;7.95;6.43;;;;;;;35.09;39.69;99728.28;5025637;28;20038;-49
2023/08/20 07:28:14;;;;;;;10.27;6.45;;;;;;;34.85;40.08;99718.13;5025587;28;20029;-49
2023/08/20 07:30:40;;;;;;;8.90;6.50;;;;;;;35.44;38.92;99720.75;5008528;28;20043;-43
2023/08/20 07:33:07;;;;;;;11.57;6.30;;;;;;;35.15;38.82;99722.03;5023541;28;20037;-47
2023/08/20 07:35:33;;;;;;;9.23;5.95;;;;;;;34.73;39.70;99720.59;5046174;28;20057;-45
2023/08/20 07:37:59;;;;;;;8.15;6.30;;;;;;;34.07;40.73;99719.63;5025201;28;20132;-48
2023/08/20 07:40:25;;;;;;;8.20;5.78;;;;;;;34.42;40.51;99723.88;5026349;28;20124;-44
2023/08/20 07:42:51;;;;;;;6.80;5.38;;;;;;;35.03;39.58;99729.09;5015069;28;20053;-44
2023/08/20 07:45:17;;;;;;;8.20;6.22;;;;;;;35.47;38.47;99714.09;5018325;28;20042;-47
2023/08/20 07:47:43;;;;;;;7.95;6.13;;;;;;;35.30;38.33;99718.28;5027373;28;20103;-46
2023/08/20 07:50:08;;;;;;;7.38;5.82;;;;;;;35.37;38.25;99716.41;5057908;28;20484;-43
2023/08/20 07:52:34;;;;;;;9.65;6.60;;;;;;;34.99;38.44;99705.41;5029785;28;20076;-49
2023/08/20 07:55:00;;;;;;;8.60;6.18;;;;;;;36.35;36.91;99691.63;5055757;28;20076;-46
2023/08/20 07:57:26;;;;;;;9.82;6.45;;;;;;;36.80;35.65;99710.47;5029969;28;20045;-48
2023/08/20 07:59:52;;;;;;;7.68;6.50;;;;;;;36.80;35.47;99711.31;5026563;28;20059;-49
2023/08/20 08:02:18;;;;;;;8.50;6.65;;;;;;;36.99;35.13;99703.22;5051737;28;20048;-48
2023/08/20 08:04:44;;;;;;;8.60;6.13;;;;;;;37.98;33.95;99703.78;5023340;28;20045;-45
2023/08/20 08:07:12;;;;;;;6.93;6.22;;;;;;;38.43;33.52;99704.19;5026428;28;20368;-50
2023/08/20 08:09:38;;;;;;;7.03;6.28;;;;;;;38.21;33.29;99704.97;5027010;28;20069;-44
2023/08/20 08:12:04;;;;;;;7.93;7.13;;;;;;;37.42;34.52;99706.78;5019455;28;20079;-49
2023/08/20 08:14:30;;;;;;;7.40;6.38;;;;;;;38.11;33.65;99700.06;5024312;28;20033;-50
2023/08/20 08:16:57;;;;;;;7.10;6.20;;;;;;;38.92;32.56;99680.44;4997699;28;20045;-47
2023/08/20 08:19:22;;;;;;;8.95;6.07;;;;;;;39.46;31.92;99694.72;5027599;28;20056;-46
2023/08/20 08:21:49;;;;;;;7.32;6.43;;;;;;;39.13;32.00;99695.31;5028897;28;20053;-50
2023/08/20 08:24:15;;;;;;;7.75;5.95;;;;;;;39.41;32.21;99687.28;5030016;28;20045;-49
2023/08/20 08:26:41;;;;;;;7.55;6.28;;;;;;;40.44;30.80;99689.03;5010403;28;20041;-45
2023/08/20 08:29:08;;;;;;;7.40;6.25;;;;;;;40.34;30.86;99665.16;5023857;28;20050;-46
2023/08/20 08:31:34;;;;;;;7.45;5.95;;;;;;;40.62;29.50;99676.00;5051951;28;20091;-50
2023/08/20 08:34:01;;;;;;;7.03;5.70;;;;;;;40.59;29.69;99667.47;5028818;28;20453;-46
2023/08/20 08:36:27;;;;;;;6.72;5.57;;;;;;;41.37;29.02;99675.47;5029231;28;20041;-47
2023/08/20 08:38:53;;;;;;;6.30;5.70;;;;;;;42.04;28.11;99677.09;5029991;28;20095;-47
2023/08/20 08:41:25;;;;;;;6.18;5.55;;;;;;;42.33;27.16;99639.41;4993763;28;20045;-48
2023/08/20 08:43:51;;;;;;;6.20;5.60;;;;;;;42.24;27.32;99661.72;5027731;28;20067;-48
2023/08/20 08:46:17;;;;;;;7.28;5.75;;;;;;;42.66;26.46;99660.97;5028872;28;20041;-49
2023/08/20 08:48:44;;;;;;;6.43;5.70;;;;;;;43.19;26.15;99662.75;5029330;28;20041;-46
2023/08/20 08:51:12;;;;;;;6.25;5.65;;;;;;;43.84;25.14;99651.22;5026835;28;20052;-55
2023/08/20 08:53:38;;;;;;;10.95;5.53;;;;;;;44.03;25.01;99665.25;5021729;28;20045;-47
2023/08/20 08:56:05;;;;;;;6.18;5.63;;;;;;;44.75;24.87;99658.75;5021500;28;20076;-43
2023/08/20 08:58:32;;;;;;;6.25;5.32;;;;;;;45.25;24.12;99659.72;5010883;28;20041;-46
2023/08/20 09:00:58;;;;;;;;;;;;;;;45.40;24.12;99671.47;5022191;28;20076;-46
2023/08/20 09:03:24;;;;;;;6.43;5.77;;;;;;;45.18;23.96;99670.16;5000642;28;20106;-48
2023/08/20 09:05:55;;;;;;;6.37;5.70;;;;;;;45.44;23.61;99669.81;5028894;28;20607;-47
2023/08/20 09:08:29;;;;;;;6.05;5.47;;;;;;;45.29;23.85;99672.59;5023393;28;20038;-47
2023/08/20 09:10:57;;;;;;;6.82;6.13;;;;;;;45.52;23.53;99680.25;5027294;28;20138;-47
2023/08/20 09:13:36;;;;;;;6.25;5.60;;;;;;;45.60;22.96;99672.50;5028070;28;20037;-53
2023/08/20 09:16:20;;;;;;;6.30;5.70;;;;;;;45.33;22.73;99668.19;5028000;28;20068;-50
2023/08/20 09:18:46;;;;;;;6.50;5.90;;;;;;;45.23;23.23;99668.22;5022637;28;20046;-54
2023/08/20 09:21:13;;;;;;;6.20;5.70;;;;;;;45.34;22.93;99669.84;5020479;28;20049;-48
2023/08/20 09:23:39;;;;;;;;;;;;;;;45.45;23.30;99665.16;5028234;28;20041;-49
2023/08/20 09:26:06;;;;;;;6.37;5.87;;;;;;;45.03;23.45;99652.66;5028602;28;19971;-51
2023/08/20 09:28:46;;;;;;;9.65;5.60;;;;;;;44.18;23.85;99642.50;5016471;28;20134;-51
2023/08/20 09:31:13;;;;;;;6.22;5.63;;;;;;;44.31;24.03;99629.13;5020225;28;20509;-52
2023/08/20 09:33:59;;;;;;;6.13;5.65;;;;;;;44.35;23.71;99631.31;5025030;28;20048;-51
2023/08/20 09:36:33;;;;;;;6.35;5.85;;;;;;;45.35;23.93;99621.22;5034207;28;20132;-47
2023/08/20 09:39:01;;;;;;;5.70;5.30;;;;;;;45.45;23.37;99621.19;5025592;28;20122;-46
2023/08/20 09:41:26;;;;;;;5.97;5.47;;;;;;;44.15;23.76;99616.47;5021242;28;20105;-50
2023/08/20 09:43:57;;;;;;;5.75;5.15;;;;;;;44.25;23.73;99612.91;5007591;28;20270;-52
2023/08/20 09:46:27;;;;;;;8.00;5.40;;;;;;;44.13;24.24;99593.16;5029142;28;20049;-52
2023/08/20 09:48:56;;;;;;;5.88;5.22;;;;;;;44.23;24.11;99602.22;5027410;28;20069;-49
2023/08/20 09:51:27;;;;;;;5.78;5.28;;;;;;;44.29;24.32;99609.38;5023725;28;20048;-49
2023/08/20 09:54:10;;;;;;;5.80;4.80;;;;;;;44.39;24.26;99605.00;5019817;28;20050;-47
2023/08/20 09:56:39;;;;;;;6.13;4.78;;;;;;;42.62;25.52;99616.94;5025253;28;20042;-52
2023/08/20 09:59:06;;;;;;;6.13;5.03;;;;;;;41.50;26.46;99606.06;5016330;28;20065;-51
2023/08/20 10:01:33;;;;;;;5.93;5.05;;;;;;;41.47;27.09;99598.34;5011870;28;20048;-52
2023/08/20 10:03:59;;;;;;;4.78;4.40;;;;;;;41.31;26.71;99604.69;5021273;28;20064;-51
2023/08/20 10:06:25;;;;;;;11.63;10.50;;;;;;;41.06;27.26;99597.03;5020773;28;20037;-52
2023/08/20 10:08:51;;;;;;;6.38;4.53;;;;;;;41.15;27.36;99594.66;5023627;28;20680;-53
2023/08/20 10:11:18;;;;;;;5.18;4.78;;;;;;;40.23;27.99;99595.22;5012272;28;20111;-49
2023/08/20 10:13:44;;;;;;;5.32;4.80;;;;;;;38.88;29.75;99582.19;5026782;28;20037;-54
2023/08/20 10:16:13;;;;;;;4.93;4.55;;;;;;;38.81;29.98;99577.91;5027764;28;20045;-55
2023/08/20 10:18:40;;;;;;;4.60;4.18;;;;;;;38.85;29.59;99581.81;5027365;28;20048;-55
2023/08/20 10:21:09;;;;;;;5.05;4.47;;;;;;;38.47;29.68;99555.94;5006388;28;20103;-55
2023/08/20 10:23:35;;;;;;;8.60;4.53;;;;;;;38.24;30.32;99572.22;5016774;28;20034;-50
2023/08/20 10:26:09;;;;;;;4.20;3.88;;;;;;;38.04;30.51;99556.28;5027136;28;20072;-56
2023/08/20 10:28:36;;;;;;;6.07;5.10;;;;;;;38.23;30.63;99527.13;5023682;28;20099;-49
2023/08/20 10:31:12;;;;;;;4.97;4.47;;;;;;;37.51;30.97;99556.19;5008988;28;20065;-53
2023/08/20 10:33:47;;;;;;;6.07;3.83;;;;;;;36.37;32.85;99548.72;5024759;28;20045;-50
2023/08/20 10:36:22;;;;;;;4.90;4.20;;;;;;;36.46;32.81;99541.94;5021416;28;20099;-54
2023/08/20 10:38:49;;;;;;;4.50;4.10;;;;;;;36.53;32.91;99539.97;5021512;28;20042;-52
2023/08/20 10:41:18;;;;;;;4.03;3.53;;;;;;;35.78;32.88;99529.38;4976965;28;20457;-49
2023/08/20 10:43:51;;;;;;;6.22;4.53;;;;;;;34.78;34.74;99512.78;5028167;28;20537;-51
2023/08/20 10:46:25;;;;;;;6.00;4.30;;;;;;;34.86;35.10;99517.09;4988128;28;20504;-49
2023/08/20 10:48:52;;;;;;;4.40;3.95;;;;;;;34.95;35.07;99528.53;5024561;28;20111;-53
2023/08/20 10:51:24;;;;;;;5.57;4.13;;;;;;;34.57;35.83;99521.13;5024990;28;20484;-53
2023/08/20 10:54:10;;;;;;;3.70;3.40;;;;;;;34.66;35.48;99516.31;5010368;28;20153;-51
2023/08/20 10:56:42;;;;;;;4.50;3.55;;;;;;;34.81;35.38;99519.63;5026738;28;20049;-51
2023/08/20 10:59:18;;;;;;;4.53;3.88;;;;;;;33.93;36.94;99515.53;5025577;28;20049;-53
2023/08/20 11:01:46;;;;;;;4.68;4.18;;;;;;;34.15;36.62;99521.56;5046753;28;20136;-54
2023/08/20 11:04:13;;;;;;;8.75;4.28;;;;;;;34.23;37.11;99518.69;5024800;28;20053;-55
2023/08/20 11:06:39;;;;;;;4.55;4.15;;;;;;;34.88;36.13;99517.75;5023479;28;20045;-57
2023/08/20 11:09:05;;;;;;;6.07;4.28;;;;;;;34.96;36.16;99516.69;5016257;28;20065;-52
2023/08/20 11:11:32;;;;;;;6.43;3.80;;;;;;;35.04;35.62;99511.84;5020436;28;20044;-51
2023/08/20 11:14:05;;;;;;;5.47;4.65;;;;;;;35.96;34.90;99516.72;5019498;28;20591;-51
2023/08/20 11:16:31;;;;;;;5.93;4.20;;;;;;;36.06;34.59;99514.34;5027345;28;20045;-53
2023/08/20 11:18:57;;;;;;;5.45;4.40;;;;;;;36.75;33.79;99494.34;5029122;28;20041;-52
2023/08/20 11:21:23;;;;;;;5.30;4.40;;;;;;;37.26;32.70;99518.34;5009109;28;20069;-46
2023/08/20 11:23:49;;;;;;;5.10;4.38;;;;;;;36.83;33.33;99495.94;5028114;28;20087;-51
2023/08/20 11:26:16;;;;;;;5.53;4.40;;;;;;;35.84;35.11;99490.63;5028819;28;20064;-49